Latest Weather Observations for Mandora

IDW60801

Issued at 11:05 pm WST Wednesday 17 September 2014 (issued every 30 minutes, with the page automatically refreshed every 10 minutes)

About weather observations | Map of weather stations | Latest weather observations for WA | Other Formats
Station Details ID: 004019 Name: MANDORA Lat: -19.74 Lon: 120.84 Height: 7.5 m
Data from the previous 72 hours. | See also: Recent months at Mandora
Date/Time
WST
Temp
°C
App
Temp
°C
Dew
Point
Rel
Hum
%
Delta-T
°C
Wind Press
QNH
hPa
Press
MSL
hPa
Rain
since 9 am
mm
Dir
 
Spd
km/h
Gust
km/h
Spd
kts
Gust
kts
17/11:00pm 22.1 - - - - WNW 9 15 5 8 1014.6 - 0.0
17/10:30pm 22.1 - - - - WNW 11 17 6 9 1014.7 - 0.0
17/10:00pm 22.1 - - - - WNW 13 17 7 9 1014.8 - 0.0
17/09:30pm 21.9 - - - - W 11 13 6 7 1014.9 - 0.0
17/09:00pm 21.9 - - - - WNW 9 13 5 7 1014.8 1014.8 0.0
17/08:30pm 22.2 - - - - W 11 15 6 8 1014.6 - 0.0
17/08:00pm 22.2 - - - - WNW 11 15 6 8 1014.3 - 0.0
17/07:30pm 22.3 - - - - WNW 9 11 5 6 1014.1 - 0.0
17/07:00pm 22.6 - - - - WNW 11 13 6 7 1013.6 - 0.0
17/06:30pm 23.4 - - - - WNW 11 15 6 8 1013.4 - 0.0
17/06:00pm 24.0 - - - - WNW 13 19 7 10 1012.9 1012.9 0.0
17/05:30pm 25.1 - - - - NW 15 22 8 12 1012.7 - 0.0
17/05:00pm 26.0 - - - - NW 20 26 11 14 1012.4 - 0.0
17/04:30pm 26.9 - - - - NW 19 24 10 13 1012.0 - 0.0
17/04:00pm 27.7 - - - - NW 20 30 11 16 1011.8 - 0.0
17/03:30pm 28.3 - - - - NW 20 37 11 20 1011.6 - 0.0
17/03:00pm 32.1 - - - - WNW 15 20 8 11 1011.4 1011.4 0.0
17/02:30pm 30.2 - - - - NW 17 26 9 14 1011.5 - 0.0
17/02:00pm 30.4 - - - - NNW 19 28 10 15 1011.8 - 0.0
17/01:30pm 31.2 - - - - NW 19 24 10 13 1011.9 - 0.0
17/01:00pm 30.4 - - - - NNW 19 26 10 14 1012.5 - 0.0
17/12:30pm 30.3 - - - - NNW 19 28 10 15 1012.7 - 0.0
17/12:00pm 29.9 - - - - NNW 20 28 11 15 1013.1 1013.1 0.0
17/11:30am 29.8 - - - - NNW 19 26 10 14 1013.3 - 0.0
17/11:00am 29.8 - - - - NNW 17 26 9 14 1013.5 - 0.0
17/10:30am 34.2 - - - - W 7 17 4 9 1013.5 - 0.0
17/10:00am 33.1 - - - - WSW 9 17 5 9 1013.7 - 0.0
17/09:30am 30.5 - - - - SW 13 20 7 11 1013.9 - 0.0
17/09:00am 28.6 - - - - WSW 15 20 8 11 1013.8 1013.8 0.0
17/08:30am 26.5 - - - - W 13 20 7 11 1013.9 - 0.0
17/08:00am 24.6 - - - - NW 6 9 3 5 1014.1 - 0.0
17/07:30am 22.6 - - - - ESE 2 7 1 4 1013.9 - 0.0
17/07:00am 20.6 - - - - SSE 6 11 3 6 1013.6 - 0.0
17/06:30am 19.5 - - - - NE 6 7 3 4 1013.1 - 0.0
17/06:00am 18.9 - - - - ENE 2 9 1 5 1012.9 1012.9 0.0
17/05:30am 19.4 - - - - E 2 6 1 3 1012.6 - 0.0
17/05:00am 20.5 - - - - WNW 6 9 3 5 1012.2 - 0.0
17/04:30am 21.3 - - - - NE 7 13 4 7 1011.8 - 0.0
17/04:00am 21.6 - - - - NE 4 11 2 6 1011.7 - 0.0
17/03:30am 21.8 - - - - WSW 9 11 5 6 1011.1 - 0.0
17/03:00am 22.6 - - - - N 4 7 2 4 1011.4 1011.4 0.0
17/02:30am 22.6 - - - - WSW 9 15 5 8 1011.2 - 0.0
17/02:00am 22.5 - - - - SW 13 17 7 9 1011.2 - 0.0
17/01:30am 22.4 - - - - WSW 13 17 7 9 1011.3 - 0.0
17/01:00am 22.0 - - - - WSW 9 17 5 9 1011.4 - 0.0
17/12:30am 21.7 - - - - WNW 7 11 4 6 1011.8 - 0.0
17/12:00am 22.1 - - - - SW 11 15 6 8 1011.8 1011.8 0.0
 
Date/Time
WST
Temp
°C
App
Temp
°C
Dew
Point
Rel
Hum
%
Delta-T
°C
Wind Press
QNH
hPa
Press
MSL
hPa
Rain
since 9 am
mm
Dir
 
Spd
km/h
Gust
km/h
Spd
kts
Gust
kts
16/11:30pm 22.3 - - - - WSW 13 15 7 8 1012.0 - 0.0
16/11:00pm 21.7 - - - - SW 7 13 4 7 1012.4 - 0.0
16/10:30pm 22.3 - - - - N 6 11 3 6 1012.2 - 0.0
16/10:00pm 23.0 - - - - W 9 13 5 7 1012.3 - 0.0
16/09:30pm 23.1 - - - - N 6 9 3 5 1012.4 - 0.0
16/09:00pm 22.8 - - - - W 9 15 5 8 1011.8 1011.8 0.0
16/08:30pm 22.6 - - - - W 11 15 6 8 1011.7 - 0.0
16/08:00pm 22.7 - - - - WNW 13 17 7 9 1011.5 - 0.0
16/07:30pm 22.6 - - - - W 11 13 6 7 1011.1 - 0.0
16/07:00pm 22.9 - - - - W 11 15 6 8 1010.7 - 0.0
16/06:30pm 23.4 - - - - WNW 11 15 6 8 1010.2 - 0.0
16/06:00pm 24.2 - - - - WNW 13 19 7 10 1009.9 1009.9 0.0
16/05:30pm 25.5 - - - - NW 15 20 8 11 1009.8 - 0.0
16/05:00pm 26.9 - - - - NW 17 24 9 13 1009.4 - 0.0
16/04:30pm 27.9 - - - - NW 19 26 10 14 1009.4 - 0.0
16/04:00pm 29.2 - - - - NW 19 26 10 14 1009.3 - 0.0
16/03:30pm 29.9 - - - - NNW 20 26 11 14 1009.0 - 0.0
16/03:00pm 30.2 - - - - NNW 24 35 13 19 1009.2 1009.2 0.0
16/02:30pm 33.7 - - - - NW 22 32 12 17 1009.3 - 0.0
16/02:00pm 34.1 - - - - NW 17 24 9 13 1009.3 - 0.0
16/01:30pm 35.0 - - - - NNW 19 24 10 13 1009.6 - 0.0
16/01:00pm 34.2 - - - - NNW 17 24 9 13 1010.0 - 0.0
16/12:30pm 33.5 - - - - NNW 17 22 9 12 1010.4 - 0.0
16/12:00pm 33.4 - - - - NNW 15 22 8 12 1010.9 1010.9 0.0
16/11:30am 33.6 - - - - NNW 11 17 6 9 1011.3 - 0.0
16/11:00am 34.5 - - - - NNW 7 13 4 7 1011.8 - 0.0
16/10:30am 33.0 - - - - SSW 4 9 2 5 1012.3 - 0.0
16/10:00am 31.1 - - - - SW 7 15 4 8 1012.7 - 0.0
16/09:30am 30.7 - - - - S 6 11 3 6 1012.9 - 0.0
16/09:00am 28.3 - - - - ENE 7 9 4 5 1013.2 1013.2 0.0
16/08:30am 26.5 - - - - NE 4 9 2 5 1013.2 - 0.0
16/08:00am 24.6 - - - - SSE 2 6 1 3 1013.3 - 0.0
16/07:30am 22.8 - - - - S 6 11 3 6 1013.1 - 0.0
16/07:00am 21.4 - - - - S 9 11 5 6 1012.9 - 0.0
16/06:30am 20.2 - - - - S 7 11 4 6 1012.6 - 0.0
16/06:00am 20.2 - - - - S 9 11 5 6 1012.2 1012.2 0.0
16/05:30am 19.8 - - - - SSE 7 11 4 6 1012.0 - 0.0
16/05:00am 19.8 - - - - SE 7 13 4 7 1011.8 - 0.0
16/04:30am 20.1 - - - - SW 6 11 3 6 1011.4 - 0.0
16/04:00am 20.3 - - - - CALM 0 0 0 0 1011.2 - 0.0
16/03:30am 20.7 - - - - W 6 9 3 5 1011.0 - 0.0
16/03:00am 21.3 - - - - W 11 15 6 8 1010.8 1010.8 0.0
16/02:30am 20.4 - - - - W 7 13 4 7 1011.0 - 0.0
16/02:00am 18.9 - - - - WNW 7 11 4 6 1011.3 - 0.0
16/01:30am 17.6 - - - - NNE 2 9 1 5 1011.5 - 0.0
16/01:00am 16.6 - - - - NNE 7 17 4 9 1011.5 - 0.0
16/12:30am 16.6 - - - - NNE 7 15 4 8 1011.5 - 0.0
16/12:00am 16.9 - - - - WSW 7 11 4 6 1011.2 1011.2 0.0
 
Date/Time
WST
Temp
°C
App
Temp
°C
Dew
Point
Rel
Hum
%
Delta-T
°C
Wind Press
QNH
hPa
Press
MSL
hPa
Rain
since 9 am
mm
Dir
 
Spd
km/h
Gust
km/h
Spd
kts
Gust
kts
15/11:30pm 17.8 - - - - S 9 13 5 7 1011.6 - 0.0
15/11:00pm 18.5 - - - - SW 9 13 5 7 1011.8 - 0.0
15/10:30pm 19.2 - - - - SSE 9 13 5 7 1012.1 - 0.0
15/10:00pm 18.5 - - - - ESE 4 9 2 5 1012.0 - 0.0
15/09:30pm 19.4 - - - - SSE 7 9 4 5 1012.2 - 0.0
15/09:00pm 19.7 - - - - CALM 0 0 0 0 1012.1 1012.1 0.0
15/08:30pm 20.6 - - - - SSW 7 11 4 6 1012.0 - 0.0
15/08:00pm 21.6 - - - - W 7 9 4 5 1011.9 - 0.0
15/07:30pm 22.0 - - - - SSW 6 9 3 5 1011.6 - 0.0
15/07:00pm 23.0 - - - - SW 7 9 4 5 1011.3 - 0.0
15/06:30pm 23.9 - - - - W 9 15 5 8 1010.9 - 0.0
15/06:00pm 24.7 - - - - W 11 17 6 9 1010.6 1010.6 0.0
15/05:30pm 26.1 - - - - WNW 13 19 7 10 1010.3 - 0.0
15/05:00pm 27.2 - - - - NW 17 26 9 14 1010.1 - 0.0
15/04:30pm 28.7 - - - - NW 19 28 10 15 1009.9 - 0.0
15/04:00pm 29.5 - - - - NNW 19 28 10 15 1009.8 - 0.0
15/03:30pm 29.7 - - - - NNW 22 32 12 17 1009.9 - 0.0
15/03:00pm 31.1 - - - - NNW 22 33 12 18 1010.0 1010.0 0.0
15/02:30pm 31.5 - - - - N 24 32 13 17 1010.2 - 0.0
15/02:00pm 32.1 - - - - N 28 39 15 21 1010.3 - 0.0
15/01:30pm 30.4 - - - - N 28 35 15 19 1010.7 - 0.0
15/01:00pm 30.5 - - - - N 26 35 14 19 1011.1 - 0.0
15/12:30pm 32.1 - - - - N 26 33 14 18 1011.3 - 0.0
15/12:00pm 31.0 - - - - N 26 35 14 19 1011.7 1011.7 0.0
15/11:30am 32.3 - - - - N 26 39 14 21 1012.2 - 0.0
15/11:15am 30.7 - - - - N 28 50 15 27 1012.4 - 0.0
15/11:00am 32.2 - - - - N 24 39 13 21 1012.4 - 0.0
15/10:30am 36.2 - - - - NNE 15 22 8 12 1012.5 - 0.0
15/10:00am 35.7 - - - - ENE 11 17 6 9 1012.7 - 0.0
15/09:30am 33.8 - - - - ENE 13 19 7 10 1012.6 - 0.0
15/09:00am 32.2 - - - - E 11 15 6 8 1012.6 1012.6 0.0
15/08:30am 29.3 - - - - E 9 15 5 8 1012.7 - 0.0
15/08:00am 26.9 - - - - E 9 17 5 9 1012.7 - 0.0
15/07:30am 22.8 - - - - E 11 15 6 8 1012.5 - 0.0
15/07:00am 19.8 - - - - ESE 11 15 6 8 1012.4 - 0.0
15/06:30am 18.4 - - - - ESE 11 15 6 8 1012.2 - 0.0
15/06:00am 17.4 - - - - ESE 11 13 6 7 1012.0 1012.0 0.0
15/05:30am 17.5 - - - - E 9 11 5 6 1011.7 - 0.0
15/05:00am 18.4 - - - - ESE 9 11 5 6 1011.5 - 0.0
15/04:30am 19.3 - - - - E 9 13 5 7 1011.4 - 0.0
15/04:00am 19.5 - - - - SSE 7 9 4 5 1011.2 - 0.0
15/03:30am 20.3 - - - - SE 7 9 4 5 1011.1 - 0.0
15/03:00am 21.0 - - - - SSE 7 9 4 5 1011.0 1011.0 0.0
15/02:30am 21.7 - - - - SSE 7 9 4 5 1011.2 - 0.0
15/02:00am 21.6 - - - - S 7 9 4 5 1011.3 - 0.0
15/01:30am 21.2 - - - - S 6 7 3 4 1011.4 - 0.0
15/01:00am 21.6 - - - - S 7 9 4 5 1011.6 - 0.0
15/12:30am 20.9 - - - - SSE 7 9 4 5 1011.8 - 0.0
15/12:00am 21.8 - - - - ESE 9 13 5 7 1012.0 1012.0 0.0
 
Date/Time
WST
Temp
°C
App
Temp
°C
Dew
Point
Rel
Hum
%
Delta-T
°C
Wind Press
QNH
hPa
Press
MSL
hPa
Rain
since 9 am
mm
Dir
 
Spd
km/h
Gust
km/h
Spd
kts
Gust
kts
14/11:30pm 21.0 - - - - ESE 7 9 4 5 1012.3 - 0.0

Other Formats:

Comma delimited format used in spreadsheet applications
http://www.bom.gov.au/fwo/IDW60801/IDW60801.94200.axf

JavaScript Object Notation format (JSON) in row-major order
http://www.bom.gov.au/fwo/IDW60801/IDW60801.94200.json